sensor_id;sensor_type;location;lat;lon;timestamp;temperature;humidity
49184;DHT22;35021;49.214;12.270;2022-10-17T00:01:58;21.40;57.30
49184;DHT22;35021;49.214;12.270;2022-10-17T00:04:25;21.40;57.30
49184;DHT22;35021;49.214;12.270;2022-10-17T00:06:53;21.40;57.20
49184;DHT22;35021;49.214;12.270;2022-10-17T00:09:20;21.40;57.20
49184;DHT22;35021;49.214;12.270;2022-10-17T00:11:47;21.40;57.10
49184;DHT22;35021;49.214;12.270;2022-10-17T00:14:14;21.40;57.10
49184;DHT22;35021;49.214;12.270;2022-10-17T00:16:41;21.40;57.10
49184;DHT22;35021;49.214;12.270;2022-10-17T00:19:08;21.40;57.10
49184;DHT22;35021;49.214;12.270;2022-10-17T00:21:35;21.40;57.00
49184;DHT22;35021;49.214;12.270;2022-10-17T00:24:02;21.30;56.90
49184;DHT22;35021;49.214;12.270;2022-10-17T00:26:29;21.40;57.00
49184;DHT22;35021;49.214;12.270;2022-10-17T00:28:57;21.40;57.00
49184;DHT22;35021;49.214;12.270;2022-10-17T00:31:24;21.40;57.00
49184;DHT22;35021;49.214;12.270;2022-10-17T00:33:52;21.40;57.00
49184;DHT22;35021;49.214;12.270;2022-10-17T00:36:21;21.40;57.00
49184;DHT22;35021;49.214;12.270;2022-10-17T00:38:51;21.40;57.00
49184;DHT22;35021;49.214;12.270;2022-10-17T00:41:21;21.40;56.90
49184;DHT22;35021;49.214;12.270;2022-10-17T00:46:26;21.40;56.80
49184;DHT22;35021;49.214;12.270;2022-10-17T00:48:55;21.40;56.80
49184;DHT22;35021;49.214;12.270;2022-10-17T00:51:29;21.40;56.70
49184;DHT22;35021;49.214;12.270;2022-10-17T00:53:58;21.40;56.70
49184;DHT22;35021;49.214;12.270;2022-10-17T00:56:26;21.30;57.30
49184;DHT22;35021;49.214;12.270;2022-10-17T00:58:54;21.40;56.60
49184;DHT22;35021;49.214;12.270;2022-10-17T01:01:21;21.40;56.60
49184;DHT22;35021;49.214;12.270;2022-10-17T01:03:48;21.40;56.50
49184;DHT22;35021;49.214;12.270;2022-10-17T01:06:15;21.40;56.50
49184;DHT22;35021;49.214;12.270;2022-10-17T01:08:42;21.40;56.40
49184;DHT22;35021;49.214;12.270;2022-10-17T01:13:43;21.40;56.30
49184;DHT22;35021;49.214;12.270;2022-10-17T01:16:33;21.40;56.30
49184;DHT22;35021;49.214;12.270;2022-10-17T01:22:04;21.40;56.20
49184;DHT22;35021;49.214;12.270;2022-10-17T01:24:46;21.40;56.20
49184;DHT22;35021;49.214;12.270;2022-10-17T01:33:13;21.40;56.10
49184;DHT22;35021;49.214;12.270;2022-10-17T01:35:47;21.30;56.00
49184;DHT22;35021;49.214;12.270;2022-10-17T01:38:24;21.40;56.00
49184;DHT22;35021;49.214;12.270;2022-10-17T01:43:57;21.40;55.90
49184;DHT22;35021;49.214;12.270;2022-10-17T01:46:38;21.40;55.90
49184;DHT22;35021;49.214;12.270;2022-10-17T01:49:08;21.30;55.80
49184;DHT22;35021;49.214;12.270;2022-10-17T01:51:40;21.30;55.70
49184;DHT22;35021;49.214;12.270;2022-10-17T01:54:24;21.30;55.80
49184;DHT22;35021;49.214;12.270;2022-10-17T01:56:57;21.30;55.80
49184;DHT22;35021;49.214;12.270;2022-10-17T01:59:30;21.30;55.80
49184;DHT22;35021;49.214;12.270;2022-10-17T02:01:59;21.20;55.90
49184;DHT22;35021;49.214;12.270;2022-10-17T02:04:28;21.20;55.90
49184;DHT22;35021;49.214;12.270;2022-10-17T02:06:55;21.20;56.00
49184;DHT22;35021;49.214;12.270;2022-10-17T02:09:26;21.20;56.10
49184;DHT22;35021;49.214;12.270;2022-10-17T02:18:02;21.10;56.10
49184;DHT22;35021;49.214;12.270;2022-10-17T02:23:54;21.10;56.20
49184;DHT22;35021;49.214;12.270;2022-10-17T02:26:38;21.10;56.20
49184;DHT22;35021;49.214;12.270;2022-10-17T02:29:16;21.10;56.20
49184;DHT22;35021;49.214;12.270;2022-10-17T02:31:50;21.10;56.10
49184;DHT22;35021;49.214;12.270;2022-10-17T02:34:26;21.10;56.10
49184;DHT22;35021;49.214;12.270;2022-10-17T02:36:58;21.10;56.80
49184;DHT22;35021;49.214;12.270;2022-10-17T02:39:27;21.10;56.10
49184;DHT22;35021;49.214;12.270;2022-10-17T02:41:57;21.10;56.10
49184;DHT22;35021;49.214;12.270;2022-10-17T02:44:26;21.10;56.00
49184;DHT22;35021;49.214;12.270;2022-10-17T02:47:00;21.10;55.90
49184;DHT22;35021;49.214;12.270;2022-10-17T02:49:35;21.10;55.90
49184;DHT22;35021;49.214;12.270;2022-10-17T02:52:14;21.10;55.90
49184;DHT22;35021;49.214;12.270;2022-10-17T02:54:49;21.10;55.80
49184;DHT22;35021;49.214;12.270;2022-10-17T02:57:35;21.10;55.80
49184;DHT22;35021;49.214;12.270;2022-10-17T03:00:06;21.10;55.80
49184;DHT22;35021;49.214;12.270;2022-10-17T03:02:42;21.10;55.70
49184;DHT22;35021;49.214;12.270;2022-10-17T03:05:12;21.10;55.70
49184;DHT22;35021;49.214;12.270;2022-10-17T03:07:39;21.10;55.70
49184;DHT22;35021;49.214;12.270;2022-10-17T03:10:06;21.10;55.60
49184;DHT22;35021;49.214;12.270;2022-10-17T03:12:33;21.10;55.70
49184;DHT22;35021;49.214;12.270;2022-10-17T03:15:00;21.10;55.80
49184;DHT22;35021;49.214;12.270;2022-10-17T03:17:28;21.00;55.80
49184;DHT22;35021;49.214;12.270;2022-10-17T03:19:55;21.00;55.90
49184;DHT22;35021;49.214;12.270;2022-10-17T03:22:21;20.90;56.00
49184;DHT22;35021;49.214;12.270;2022-10-17T03:24:48;20.90;56.10
49184;DHT22;35021;49.214;12.270;2022-10-17T03:27:16;20.80;56.10
49184;DHT22;35021;49.214;12.270;2022-10-17T03:29:43;20.80;56.20
49184;DHT22;35021;49.214;12.270;2022-10-17T03:32:09;20.80;56.30
49184;DHT22;35021;49.214;12.270;2022-10-17T03:34:36;20.80;56.40
49184;DHT22;35021;49.214;12.270;2022-10-17T03:37:03;20.80;56.40
49184;DHT22;35021;49.214;12.270;2022-10-17T03:39:30;20.80;56.40
49184;DHT22;35021;49.214;12.270;2022-10-17T03:41:57;20.80;56.40
49184;DHT22;35021;49.214;12.270;2022-10-17T03:44:24;20.80;56.40
49184;DHT22;35021;49.214;12.270;2022-10-17T03:46:51;20.80;56.40
49184;DHT22;35021;49.214;12.270;2022-10-17T03:49:18;20.80;56.40
49184;DHT22;35021;49.214;12.270;2022-10-17T03:51:44;20.80;56.40
49184;DHT22;35021;49.214;12.270;2022-10-17T03:54:11;20.80;56.40
49184;DHT22;35021;49.214;12.270;2022-10-17T03:56:38;20.80;57.10
49184;DHT22;35021;49.214;12.270;2022-10-17T03:59:05;20.80;56.30
49184;DHT22;35021;49.214;12.270;2022-10-17T04:01:32;20.80;56.30
49184;DHT22;35021;49.214;12.270;2022-10-17T04:03:59;20.80;56.20
49184;DHT22;35021;49.214;12.270;2022-10-17T04:06:25;20.80;56.20
49184;DHT22;35021;49.214;12.270;2022-10-17T04:08:52;20.80;56.20
49184;DHT22;35021;49.214;12.270;2022-10-17T04:11:20;20.80;56.20
49184;DHT22;35021;49.214;12.270;2022-10-17T04:13:51;20.80;56.20
49184;DHT22;35021;49.214;12.270;2022-10-17T04:16:18;20.70;56.20
49184;DHT22;35021;49.214;12.270;2022-10-17T04:18:45;20.70;56.20
49184;DHT22;35021;49.214;12.270;2022-10-17T04:21:12;20.70;56.20
49184;DHT22;35021;49.214;12.270;2022-10-17T04:23:39;20.70;56.20
49184;DHT22;35021;49.214;12.270;2022-10-17T04:26:06;20.70;56.80
49184;DHT22;35021;49.214;12.270;2022-10-17T04:28:33;20.80;56.20
49184;DHT22;35021;49.214;12.270;2022-10-17T04:31:09;20.70;56.10
49184;DHT22;35021;49.214;12.270;2022-10-17T04:33:37;20.80;56.20
49184;DHT22;35021;49.214;12.270;2022-10-17T04:36:06;20.70;56.00
49184;DHT22;35021;49.214;12.270;2022-10-17T04:38:33;20.70;55.90
49184;DHT22;35021;49.214;12.270;2022-10-17T04:41:02;20.70;55.90
49184;DHT22;35021;49.214;12.270;2022-10-17T04:43:31;20.80;55.90
49184;DHT22;35021;49.214;12.270;2022-10-17T04:45:59;20.80;55.90
49184;DHT22;35021;49.214;12.270;2022-10-17T04:48:27;20.70;55.80
49184;DHT22;35021;49.214;12.270;2022-10-17T04:50:55;20.70;55.90
49184;DHT22;35021;49.214;12.270;2022-10-17T04:53:22;20.70;55.90
49184;DHT22;35021;49.214;12.270;2022-10-17T04:55:49;20.70;56.00
49184;DHT22;35021;49.214;12.270;2022-10-17T04:58:16;20.70;56.00
49184;DHT22;35021;49.214;12.270;2022-10-17T05:00:43;20.70;56.00
49184;DHT22;35021;49.214;12.270;2022-10-17T05:03:10;20.70;56.00
49184;DHT22;35021;49.214;12.270;2022-10-17T05:05:38;20.70;56.00
49184;DHT22;35021;49.214;12.270;2022-10-17T05:08:06;20.70;56.10
49184;DHT22;35021;49.214;12.270;2022-10-17T05:10:41;20.70;56.10
49184;DHT22;35021;49.214;12.270;2022-10-17T05:13:09;20.70;56.10
49184;DHT22;35021;49.214;12.270;2022-10-17T05:15:36;20.70;56.10
49184;DHT22;35021;49.214;12.270;2022-10-17T05:18:04;20.70;56.10
49184;DHT22;35021;49.214;12.270;2022-10-17T05:20:32;20.70;56.10
49184;DHT22;35021;49.214;12.270;2022-10-17T05:22:59;20.70;56.00
49184;DHT22;35021;49.214;12.270;2022-10-17T05:25:26;20.70;56.00
49184;DHT22;35021;49.214;12.270;2022-10-17T05:27:53;20.70;56.00
49184;DHT22;35021;49.214;12.270;2022-10-17T05:30:20;20.70;56.60
49184;DHT22;35021;49.214;12.270;2022-10-17T05:32:47;20.70;55.90
49184;DHT22;35021;49.214;12.270;2022-10-17T05:35:14;20.70;55.90
49184;DHT22;35021;49.214;12.270;2022-10-17T05:37:40;20.70;55.90
49184;DHT22;35021;49.214;12.270;2022-10-17T05:40:07;20.70;55.80
49184;DHT22;35021;49.214;12.270;2022-10-17T05:42:34;20.70;55.80
49184;DHT22;35021;49.214;12.270;2022-10-17T05:45:02;20.70;55.80
49184;DHT22;35021;49.214;12.270;2022-10-17T05:47:29;20.70;55.70
49184;DHT22;35021;49.214;12.270;2022-10-17T05:49:57;20.70;55.60
49184;DHT22;35021;49.214;12.270;2022-10-17T05:52:24;20.70;55.60
49184;DHT22;35021;49.214;12.270;2022-10-17T05:54:51;20.70;55.70
49184;DHT22;35021;49.214;12.270;2022-10-17T05:57:17;20.70;55.70
49184;DHT22;35021;49.214;12.270;2022-10-17T05:59:44;20.70;55.70
49184;DHT22;35021;49.214;12.270;2022-10-17T06:02:11;20.70;55.70
49184;DHT22;35021;49.214;12.270;2022-10-17T06:04:38;20.70;55.70
49184;DHT22;35021;49.214;12.270;2022-10-17T06:07:14;20.70;55.60
49184;DHT22;35021;49.214;12.270;2022-10-17T06:09:41;20.70;55.60
49184;DHT22;35021;49.214;12.270;2022-10-17T06:12:08;20.70;55.60
49184;DHT22;35021;49.214;12.270;2022-10-17T06:14:35;20.70;55.60
49184;DHT22;35021;49.214;12.270;2022-10-17T06:17:02;20.60;55.60
49184;DHT22;35021;49.214;12.270;2022-10-17T06:19:29;20.60;55.60
49184;DHT22;35021;49.214;12.270;2022-10-17T06:21:55;20.60;55.60
49184;DHT22;35021;49.214;12.270;2022-10-17T06:24:22;20.60;55.60
49184;DHT22;35021;49.214;12.270;2022-10-17T06:26:49;20.60;55.60
49184;DHT22;35021;49.214;12.270;2022-10-17T06:29:16;20.60;55.70
49184;DHT22;35021;49.214;12.270;2022-10-17T06:31:43;20.60;55.60
49184;DHT22;35021;49.214;12.270;2022-10-17T06:34:10;20.60;55.60
49184;DHT22;35021;49.214;12.270;2022-10-17T06:36:37;20.60;55.60
49184;DHT22;35021;49.214;12.270;2022-10-17T06:39:04;20.60;55.60
49184;DHT22;35021;49.214;12.270;2022-10-17T06:41:30;20.60;55.60
49184;DHT22;35021;49.214;12.270;2022-10-17T06:43:57;20.60;55.60
49184;DHT22;35021;49.214;12.270;2022-10-17T06:46:24;20.60;55.60
49184;DHT22;35021;49.214;12.270;2022-10-17T06:48:55;20.60;55.60
49184;DHT22;35021;49.214;12.270;2022-10-17T06:51:22;20.60;55.60
49184;DHT22;35021;49.214;12.270;2022-10-17T06:53:49;20.60;55.70
49184;DHT22;35021;49.214;12.270;2022-10-17T06:56:15;20.60;55.70
49184;DHT22;35021;49.214;12.270;2022-10-17T06:58:42;20.60;55.70
49184;DHT22;35021;49.214;12.270;2022-10-17T07:01:11;20.60;56.30
49184;DHT22;35021;49.214;12.270;2022-10-17T07:03:38;20.60;55.60
49184;DHT22;35021;49.214;12.270;2022-10-17T07:06:06;20.50;55.60
49184;DHT22;35021;49.214;12.270;2022-10-17T07:08:33;20.60;55.70
49184;DHT22;35021;49.214;12.270;2022-10-17T07:11:09;20.50;55.60
49184;DHT22;35021;49.214;12.270;2022-10-17T07:13:36;20.50;55.70
49184;DHT22;35021;49.214;12.270;2022-10-17T07:16:05;20.50;55.70
49184;DHT22;35021;49.214;12.270;2022-10-17T07:18:32;20.50;55.80
49184;DHT22;35021;49.214;12.270;2022-10-17T07:20:59;20.50;55.80
49184;DHT22;35021;49.214;12.270;2022-10-17T07:23:27;20.50;55.80
49184;DHT22;35021;49.214;12.270;2022-10-17T07:26:01;20.50;55.80
49184;DHT22;35021;49.214;12.270;2022-10-17T07:28:28;20.50;55.80
49184;DHT22;35021;49.214;12.270;2022-10-17T07:30:55;20.50;55.90
49184;DHT22;35021;49.214;12.270;2022-10-17T07:33:28;20.50;55.90
49184;DHT22;35021;49.214;12.270;2022-10-17T07:35:57;20.50;55.90
49184;DHT22;35021;49.214;12.270;2022-10-17T07:38:25;20.50;55.90
49184;DHT22;35021;49.214;12.270;2022-10-17T07:40:55;20.50;55.90
49184;DHT22;35021;49.214;12.270;2022-10-17T07:43:24;20.50;55.90
49184;DHT22;35021;49.214;12.270;2022-10-17T07:45:52;20.50;55.90
49184;DHT22;35021;49.214;12.270;2022-10-17T07:48:20;20.50;55.90
49184;DHT22;35021;49.214;12.270;2022-10-17T07:50:47;20.50;55.90
49184;DHT22;35021;49.214;12.270;2022-10-17T07:53:14;20.50;56.00
49184;DHT22;35021;49.214;12.270;2022-10-17T07:55:41;20.50;56.00
49184;DHT22;35021;49.214;12.270;2022-10-17T07:58:08;20.50;56.30
49184;DHT22;35021;49.214;12.270;2022-10-17T08:00:36;20.50;56.10
49184;DHT22;35021;49.214;12.270;2022-10-17T08:03:03;20.50;56.20
49184;DHT22;35021;49.214;12.270;2022-10-17T08:05:31;20.50;56.30
49184;DHT22;35021;49.214;12.270;2022-10-17T08:07:58;20.50;56.30
49184;DHT22;35021;49.214;12.270;2022-10-17T08:10:25;20.50;56.40
49184;DHT22;35021;49.214;12.270;2022-10-17T08:12:54;20.50;56.50
49184;DHT22;35021;49.214;12.270;2022-10-17T08:15:23;20.50;56.60
49184;DHT22;35021;49.214;12.270;2022-10-17T08:17:57;20.40;56.60
49184;DHT22;35021;49.214;12.270;2022-10-17T08:20:24;20.50;56.70
49184;DHT22;35021;49.214;12.270;2022-10-17T08:22:55;20.50;56.70
49184;DHT22;35021;49.214;12.270;2022-10-17T08:25:22;20.40;56.60
49184;DHT22;35021;49.214;12.270;2022-10-17T08:27:49;20.50;56.70
49184;DHT22;35021;49.214;12.270;2022-10-17T08:30:16;20.50;56.80
49184;DHT22;35021;49.214;12.270;2022-10-17T08:32:43;20.50;56.80
49184;DHT22;35021;49.214;12.270;2022-10-17T08:35:10;20.50;56.80
49184;DHT22;35021;49.214;12.270;2022-10-17T08:37:37;20.50;56.90
49184;DHT22;35021;49.214;12.270;2022-10-17T08:40:04;20.50;57.00
49184;DHT22;35021;49.214;12.270;2022-10-17T08:48:01;20.50;58.00
49184;DHT22;35021;49.214;12.270;2022-10-17T08:50:38;20.50;57.40
49184;DHT22;35021;49.214;12.270;2022-10-17T08:56:00;20.60;58.10
49184;DHT22;35021;49.214;12.270;2022-10-17T08:58:31;20.70;57.30
49184;DHT22;35021;49.214;12.270;2022-10-17T09:01:31;20.90;57.10
49184;DHT22;35021;49.214;12.270;2022-10-17T09:06:49;21.20;56.70
49184;DHT22;35021;49.214;12.270;2022-10-17T09:22:33;21.90;55.40
49184;DHT22;35021;49.214;12.270;2022-10-17T09:25:05;22.10;55.50
49184;DHT22;35021;49.214;12.270;2022-10-17T09:27:45;22.10;55.30
49184;DHT22;35021;49.214;12.270;2022-10-17T09:30:21;22.20;55.50
49184;DHT22;35021;49.214;12.270;2022-10-17T09:35:59;22.30;55.30
49184;DHT22;35021;49.214;12.270;2022-10-17T09:38:37;22.30;55.30
49184;DHT22;35021;49.214;12.270;2022-10-17T09:41:10;22.30;56.00
49184;DHT22;35021;49.214;12.270;2022-10-17T09:46:38;22.30;55.50
49184;DHT22;35021;49.214;12.270;2022-10-17T09:51:39;22.30;55.60
49184;DHT22;35021;49.214;12.270;2022-10-17T09:54:48;22.30;55.60
49184;DHT22;35021;49.214;12.270;2022-10-17T09:57:17;22.30;55.60
49184;DHT22;35021;49.214;12.270;2022-10-17T09:59:56;22.30;55.70
49184;DHT22;35021;49.214;12.270;2022-10-17T10:02:26;22.30;55.60
49184;DHT22;35021;49.214;12.270;2022-10-17T10:05:13;22.40;55.70
49184;DHT22;35021;49.214;12.270;2022-10-17T10:07:43;22.40;55.70
49184;DHT22;35021;49.214;12.270;2022-10-17T10:10:24;22.40;55.70
49184;DHT22;35021;49.214;12.270;2022-10-17T10:15:43;22.40;55.60
49184;DHT22;35021;49.214;12.270;2022-10-17T10:21:04;22.50;55.70
49184;DHT22;35021;49.214;12.270;2022-10-17T10:23:31;22.50;55.70
49184;DHT22;35021;49.214;12.270;2022-10-17T10:26:03;22.50;55.60
49184;DHT22;35021;49.214;12.270;2022-10-17T10:28:34;22.60;55.60
49184;DHT22;35021;49.214;12.270;2022-10-17T10:31:06;22.60;55.60
49184;DHT22;35021;49.214;12.270;2022-10-17T10:33:39;22.60;55.60
49184;DHT22;35021;49.214;12.270;2022-10-17T10:36:08;22.60;55.60
49184;DHT22;35021;49.214;12.270;2022-10-17T10:38:38;22.60;55.50
49184;DHT22;35021;49.214;12.270;2022-10-17T10:41:08;22.60;55.40
49184;DHT22;35021;49.214;12.270;2022-10-17T10:43:44;22.60;55.30
49184;DHT22;35021;49.214;12.270;2022-10-17T10:46:24;22.60;55.20
49184;DHT22;35021;49.214;12.270;2022-10-17T10:48:54;22.60;55.10
49184;DHT22;35021;49.214;12.270;2022-10-17T10:56:45;22.70;55.00
49184;DHT22;35021;49.214;12.270;2022-10-17T11:02:19;22.70;54.90
49184;DHT22;35021;49.214;12.270;2022-10-17T11:07:34;22.70;54.80
49184;DHT22;35021;49.214;12.270;2022-10-17T11:19:30;22.60;54.60
49184;DHT22;35021;49.214;12.270;2022-10-17T11:24:39;22.60;55.00
49184;DHT22;35021;49.214;12.270;2022-10-17T11:27:08;22.50;54.90
49184;DHT22;35021;49.214;12.270;2022-10-17T11:29:38;22.50;54.90
49184;DHT22;35021;49.214;12.270;2022-10-17T11:32:20;22.50;54.90
49184;DHT22;35021;49.214;12.270;2022-10-17T11:34:51;22.50;54.90
49184;DHT22;35021;49.214;12.270;2022-10-17T11:37:29;22.50;54.80
49184;DHT22;35021;49.214;12.270;2022-10-17T11:40:14;22.50;54.80
49184;DHT22;35021;49.214;12.270;2022-10-17T11:42:57;22.50;54.60
49184;DHT22;35021;49.214;12.270;2022-10-17T11:45:29;22.50;54.50
49184;DHT22;35021;49.214;12.270;2022-10-17T11:48:23;22.50;54.40
49184;DHT22;35021;49.214;12.270;2022-10-17T11:51:11;22.50;54.20
49184;DHT22;35021;49.214;12.270;2022-10-17T11:54:10;22.50;54.10
49184;DHT22;35021;49.214;12.270;2022-10-17T12:05:27;22.60;53.90
49184;DHT22;35021;49.214;12.270;2022-10-17T12:08:08;22.60;53.70
49184;DHT22;35021;49.214;12.270;2022-10-17T12:10:44;22.60;53.60
49184;DHT22;35021;49.214;12.270;2022-10-17T12:15:57;22.60;53.40
49184;DHT22;35021;49.214;12.270;2022-10-17T12:18:47;22.60;53.30
49184;DHT22;35021;49.214;12.270;2022-10-17T12:21:17;22.60;53.30
49184;DHT22;35021;49.214;12.270;2022-10-17T12:23:54;22.70;53.30
49184;DHT22;35021;49.214;12.270;2022-10-17T12:26:28;22.70;53.20
49184;DHT22;35021;49.214;12.270;2022-10-17T12:28:56;22.70;53.10
49184;DHT22;35021;49.214;12.270;2022-10-17T12:31:24;22.70;53.00
49184;DHT22;35021;49.214;12.270;2022-10-17T12:34:03;22.70;52.90
49184;DHT22;35021;49.214;12.270;2022-10-17T12:46:54;22.70;52.70
49184;DHT22;35021;49.214;12.270;2022-10-17T12:49:40;22.70;52.70
49184;DHT22;35021;49.214;12.270;2022-10-17T13:00:35;22.80;52.50
49184;DHT22;35021;49.214;12.270;2022-10-17T13:05:38;22.70;52.70
49184;DHT22;35021;49.214;12.270;2022-10-17T13:08:07;22.70;52.80
49184;DHT22;35021;49.214;12.270;2022-10-17T13:10:39;22.70;52.90
49184;DHT22;35021;49.214;12.270;2022-10-17T13:13:19;22.60;52.80
49184;DHT22;35021;49.214;12.270;2022-10-17T13:15:53;22.60;52.90
49184;DHT22;35021;49.214;12.270;2022-10-17T13:18:23;22.60;53.00
49184;DHT22;35021;49.214;12.270;2022-10-17T13:21:14;22.60;53.10
49184;DHT22;35021;49.214;12.270;2022-10-17T13:23:41;22.60;53.20
49184;DHT22;35021;49.214;12.270;2022-10-17T13:26:16;22.60;53.30
49184;DHT22;35021;49.214;12.270;2022-10-17T13:29:03;22.50;53.20
49184;DHT22;35021;49.214;12.270;2022-10-17T13:31:35;22.60;53.30
49184;DHT22;35021;49.214;12.270;2022-10-17T13:34:05;22.50;53.20
49184;DHT22;35021;49.214;12.270;2022-10-17T13:36:33;22.60;53.30
49184;DHT22;35021;49.214;12.270;2022-10-17T13:39:07;22.60;53.30
49184;DHT22;35021;49.214;12.270;2022-10-17T13:41:40;22.60;53.30
49184;DHT22;35021;49.214;12.270;2022-10-17T13:44:17;22.60;53.20
49184;DHT22;35021;49.214;12.270;2022-10-17T13:46:45;22.60;53.20
49184;DHT22;35021;49.214;12.270;2022-10-17T13:49:38;22.60;53.10
49184;DHT22;35021;49.214;12.270;2022-10-17T13:52:15;22.60;53.10
49184;DHT22;35021;49.214;12.270;2022-10-17T13:54:45;22.70;53.10
49184;DHT22;35021;49.214;12.270;2022-10-17T13:57:25;22.70;53.00
49184;DHT22;35021;49.214;12.270;2022-10-17T13:59:58;22.70;53.00
49184;DHT22;35021;49.214;12.270;2022-10-17T14:02:27;22.70;52.90
49184;DHT22;35021;49.214;12.270;2022-10-17T14:05:16;22.70;52.90
49184;DHT22;35021;49.214;12.270;2022-10-17T14:10:41;22.70;52.80
49184;DHT22;35021;49.214;12.270;2022-10-17T14:13:24;22.80;52.70
49184;DHT22;35021;49.214;12.270;2022-10-17T14:15:56;22.80;52.70
49184;DHT22;35021;49.214;12.270;2022-10-17T14:18:30;22.80;52.60
49184;DHT22;35021;49.214;12.270;2022-10-17T14:21:03;22.80;52.60
49184;DHT22;35021;49.214;12.270;2022-10-17T14:23:52;22.80;52.60
49184;DHT22;35021;49.214;12.270;2022-10-17T14:26:46;22.80;52.50
49184;DHT22;35021;49.214;12.270;2022-10-17T14:29:23;22.80;52.50
49184;DHT22;35021;49.214;12.270;2022-10-17T14:32:06;22.80;52.50
49184;DHT22;35021;49.214;12.270;2022-10-17T14:34:38;22.80;52.50
49184;DHT22;35021;49.214;12.270;2022-10-17T14:37:12;22.80;52.40
49184;DHT22;35021;49.214;12.270;2022-10-17T14:39:48;22.80;52.50
49184;DHT22;35021;49.214;12.270;2022-10-17T14:42:20;22.90;52.50
49184;DHT22;35021;49.214;12.270;2022-10-17T14:44:49;22.90;52.50
49184;DHT22;35021;49.214;12.270;2022-10-17T14:47:22;22.90;52.50
49184;DHT22;35021;49.214;12.270;2022-10-17T14:52:36;22.90;52.60
49184;DHT22;35021;49.214;12.270;2022-10-17T14:55:23;22.90;52.60
49184;DHT22;35021;49.214;12.270;2022-10-17T14:57:51;22.90;52.60
49184;DHT22;35021;49.214;12.270;2022-10-17T15:00:21;22.90;52.70
49184;DHT22;35021;49.214;12.270;2022-10-17T15:02:49;22.90;52.70
49184;DHT22;35021;49.214;12.270;2022-10-17T15:05:17;22.90;52.70
49184;DHT22;35021;49.214;12.270;2022-10-17T15:07:45;22.90;52.70
49184;DHT22;35021;49.214;12.270;2022-10-17T15:12:51;23.00;52.90
49184;DHT22;35021;49.214;12.270;2022-10-17T15:15:30;22.90;52.90
49184;DHT22;35021;49.214;12.270;2022-10-17T15:17:57;22.90;53.00
49184;DHT22;35021;49.214;12.270;2022-10-17T15:20:26;22.90;53.00
49184;DHT22;35021;49.214;12.270;2022-10-17T15:22:56;22.90;53.40
49184;DHT22;35021;49.214;12.270;2022-10-17T15:25:25;22.90;53.10
49184;DHT22;35021;49.214;12.270;2022-10-17T15:27:53;22.90;53.90
49184;DHT22;35021;49.214;12.270;2022-10-17T15:30:23;22.90;53.20
49184;DHT22;35021;49.214;12.270;2022-10-17T15:32:51;22.90;53.30
49184;DHT22;35021;49.214;12.270;2022-10-17T15:35:19;22.90;53.30
49184;DHT22;35021;49.214;12.270;2022-10-17T15:37:46;22.90;53.40
49184;DHT22;35021;49.214;12.270;2022-10-17T15:40:16;22.90;53.40
49184;DHT22;35021;49.214;12.270;2022-10-17T15:42:43;22.90;54.20
49184;DHT22;35021;49.214;12.270;2022-10-17T15:45:11;22.90;53.50
49184;DHT22;35021;49.214;12.270;2022-10-17T15:47:41;22.90;53.50
49184;DHT22;35021;49.214;12.270;2022-10-17T15:50:16;22.90;53.60
49184;DHT22;35021;49.214;12.270;2022-10-17T15:52:43;22.90;53.60
49184;DHT22;35021;49.214;12.270;2022-10-17T15:55:12;22.90;53.60
49184;DHT22;35021;49.214;12.270;2022-10-17T15:57:41;22.90;53.70
49184;DHT22;35021;49.214;12.270;2022-10-17T16:00:18;22.80;53.80
49184;DHT22;35021;49.214;12.270;2022-10-17T16:02:47;22.80;53.90
49184;DHT22;35021;49.214;12.270;2022-10-17T16:05:20;22.80;54.00
49184;DHT22;35021;49.214;12.270;2022-10-17T16:07:54;22.70;54.10
49184;DHT22;35021;49.214;12.270;2022-10-17T16:10:23;22.70;54.10
49184;DHT22;35021;49.214;12.270;2022-10-17T16:12:54;22.70;54.30
49184;DHT22;35021;49.214;12.270;2022-10-17T16:15:25;22.60;54.40
49184;DHT22;35021;49.214;12.270;2022-10-17T16:17:55;22.60;54.60
49184;DHT22;35021;49.214;12.270;2022-10-17T16:20:23;22.60;54.80
49184;DHT22;35021;49.214;12.270;2022-10-17T16:22:50;22.60;55.00
49184;DHT22;35021;49.214;12.270;2022-10-17T16:27:49;22.50;55.20
49184;DHT22;35021;49.214;12.270;2022-10-17T16:30:16;22.50;55.20
49184;DHT22;35021;49.214;12.270;2022-10-17T16:32:43;22.50;55.20
49184;DHT22;35021;49.214;12.270;2022-10-17T16:35:16;22.50;55.20
49184;DHT22;35021;49.214;12.270;2022-10-17T16:37:43;22.50;55.20
49184;DHT22;35021;49.214;12.270;2022-10-17T16:40:11;22.50;55.40
49184;DHT22;35021;49.214;12.270;2022-10-17T16:42:37;22.40;55.40
49184;DHT22;35021;49.214;12.270;2022-10-17T16:45:06;22.40;55.60
49184;DHT22;35021;49.214;12.270;2022-10-17T16:47:33;22.40;55.60
49184;DHT22;35021;49.214;12.270;2022-10-17T16:50:00;22.40;55.70
49184;DHT22;35021;49.214;12.270;2022-10-17T16:52:27;22.40;55.70
49184;DHT22;35021;49.214;12.270;2022-10-17T16:54:54;22.40;55.80
49184;DHT22;35021;49.214;12.270;2022-10-17T16:57:21;22.30;55.90
49184;DHT22;35021;49.214;12.270;2022-10-17T16:59:48;22.30;55.90
49184;DHT22;35021;49.214;12.270;2022-10-17T17:02:15;22.30;55.90
49184;DHT22;35021;49.214;12.270;2022-10-17T17:04:47;22.30;56.00
49184;DHT22;35021;49.214;12.270;2022-10-17T17:07:13;22.30;55.90
49184;DHT22;35021;49.214;12.270;2022-10-17T17:09:40;22.30;56.00
49184;DHT22;35021;49.214;12.270;2022-10-17T17:12:07;22.30;56.10
49184;DHT22;35021;49.214;12.270;2022-10-17T17:14:34;22.30;56.20
49184;DHT22;35021;49.214;12.270;2022-10-17T17:17:01;22.30;56.30
49184;DHT22;35021;49.214;12.270;2022-10-17T17:19:28;22.30;56.30
49184;DHT22;35021;49.214;12.270;2022-10-17T17:21:55;22.30;56.40
49184;DHT22;35021;49.214;12.270;2022-10-17T17:24:21;22.30;56.40
49184;DHT22;35021;49.214;12.270;2022-10-17T17:26:53;22.30;56.40
49184;DHT22;35021;49.214;12.270;2022-10-17T17:29:21;22.30;56.50
49184;DHT22;35021;49.214;12.270;2022-10-17T17:31:48;22.30;56.40
49184;DHT22;35021;49.214;12.270;2022-10-17T17:34:16;22.30;56.50
49184;DHT22;35021;49.214;12.270;2022-10-17T17:36:44;22.30;56.50
49184;DHT22;35021;49.214;12.270;2022-10-17T17:39:12;22.30;56.50
49184;DHT22;35021;49.214;12.270;2022-10-17T17:41:40;22.20;56.60
49184;DHT22;35021;49.214;12.270;2022-10-17T17:44:09;22.10;56.60
49184;DHT22;35021;49.214;12.270;2022-10-17T17:46:42;22.10;56.80
49184;DHT22;35021;49.214;12.270;2022-10-17T17:49:09;22.10;57.00